sensor_id;sensor_type;location;lat;lon;timestamp;P1;durP1;ratioP1;P2;durP2;ratioP2
32026;SDS011;18543;50.848;4.596;2023-04-21T00:01:29;4.87;;;3.07;;
32026;SDS011;18543;50.848;4.596;2023-04-21T00:03:57;5.28;;;3.75;;
32026;SDS011;18543;50.848;4.596;2023-04-21T00:08:53;4.57;;;3.55;;
32026;SDS011;18543;50.848;4.596;2023-04-21T00:11:21;5.55;;;3.70;;
32026;SDS011;18543;50.848;4.596;2023-04-21T00:13:48;5.40;;;3.72;;
32026;SDS011;18543;50.848;4.596;2023-04-21T00:16:15;5.93;;;3.70;;
32026;SDS011;18543;50.848;4.596;2023-04-21T00:18:42;6.30;;;3.60;;
32026;SDS011;18543;50.848;4.596;2023-04-21T00:21:10;5.50;;;3.55;;
32026;SDS011;18543;50.848;4.596;2023-04-21T00:23:37;4.67;;;3.63;;
32026;SDS011;18543;50.848;4.596;2023-04-21T00:26:04;4.60;;;3.42;;
32026;SDS011;18543;50.848;4.596;2023-04-21T00:28:31;5.35;;;3.72;;
32026;SDS011;18543;50.848;4.596;2023-04-21T00:30:59;5.23;;;3.40;;
32026;SDS011;18543;50.848;4.596;2023-04-21T00:33:26;4.40;;;3.23;;
32026;SDS011;18543;50.848;4.596;2023-04-21T00:35:53;4.50;;;3.28;;
32026;SDS011;18543;50.848;4.596;2023-04-21T00:38:22;5.07;;;3.33;;
32026;SDS011;18543;50.848;4.596;2023-04-21T00:40:49;3.93;;;3.20;;
32026;SDS011;18543;50.848;4.596;2023-04-21T00:43:16;5.53;;;3.08;;
32026;SDS011;18543;50.848;4.596;2023-04-21T00:45:44;4.65;;;3.40;;
32026;SDS011;18543;50.848;4.596;2023-04-21T00:48:14;4.55;;;3.10;;
32026;SDS011;18543;50.848;4.596;2023-04-21T00:50:42;5.32;;;3.33;;
32026;SDS011;18543;50.848;4.596;2023-04-21T00:53:11;4.68;;;3.25;;
32026;SDS011;18543;50.848;4.596;2023-04-21T00:55:38;3.92;;;3.30;;
32026;SDS011;18543;50.848;4.596;2023-04-21T00:58:06;4.53;;;3.20;;
32026;SDS011;18543;50.848;4.596;2023-04-21T01:00:33;3.83;;;3.17;;
32026;SDS011;18543;50.848;4.596;2023-04-21T01:03:01;4.45;;;3.38;;
32026;SDS011;18543;50.848;4.596;2023-04-21T01:05:29;3.65;;;3.03;;
32026;SDS011;18543;50.848;4.596;2023-04-21T01:07:57;5.05;;;3.22;;
32026;SDS011;18543;50.848;4.596;2023-04-21T01:10:24;4.30;;;3.40;;
32026;SDS011;18543;50.848;4.596;2023-04-21T01:12:51;5.10;;;3.28;;
32026;SDS011;18543;50.848;4.596;2023-04-21T01:15:18;5.50;;;3.60;;
32026;SDS011;18543;50.848;4.596;2023-04-21T01:17:46;4.37;;;3.30;;
32026;SDS011;18543;50.848;4.596;2023-04-21T01:20:15;4.07;;;3.20;;
32026;SDS011;18543;50.848;4.596;2023-04-21T01:22:42;4.25;;;3.47;;
32026;SDS011;18543;50.848;4.596;2023-04-21T01:25:10;3.88;;;3.00;;
32026;SDS011;18543;50.848;4.596;2023-04-21T01:27:37;5.10;;;3.33;;
32026;SDS011;18543;50.848;4.596;2023-04-21T01:30:05;4.32;;;3.55;;
32026;SDS011;18543;50.848;4.596;2023-04-21T01:32:33;3.63;;;3.25;;
32026;SDS011;18543;50.848;4.596;2023-04-21T01:35:00;4.70;;;3.53;;
32026;SDS011;18543;50.848;4.596;2023-04-21T01:37:29;4.10;;;3.08;;
32026;SDS011;18543;50.848;4.596;2023-04-21T01:39:57;4.07;;;3.35;;
32026;SDS011;18543;50.848;4.596;2023-04-21T01:42:27;4.03;;;3.30;;
32026;SDS011;18543;50.848;4.596;2023-04-21T01:44:54;3.50;;;3.10;;
32026;SDS011;18543;50.848;4.596;2023-04-21T01:47:22;3.53;;;3.00;;
32026;SDS011;18543;50.848;4.596;2023-04-21T01:49:49;3.90;;;3.15;;
32026;SDS011;18543;50.848;4.596;2023-04-21T01:52:16;3.63;;;3.15;;
32026;SDS011;18543;50.848;4.596;2023-04-21T01:54:44;4.70;;;3.38;;
32026;SDS011;18543;50.848;4.596;2023-04-21T01:57:11;4.40;;;3.23;;
32026;SDS011;18543;50.848;4.596;2023-04-21T01:59:38;4.93;;;3.10;;
32026;SDS011;18543;50.848;4.596;2023-04-21T02:02:06;5.80;;;3.03;;
32026;SDS011;18543;50.848;4.596;2023-04-21T02:04:33;4.13;;;3.45;;
32026;SDS011;18543;50.848;4.596;2023-04-21T02:07:01;3.72;;;3.40;;
32026;SDS011;18543;50.848;4.596;2023-04-21T02:09:28;4.60;;;3.10;;
32026;SDS011;18543;50.848;4.596;2023-04-21T02:11:56;3.67;;;3.28;;
32026;SDS011;18543;50.848;4.596;2023-04-21T02:14:24;4.90;;;3.20;;
32026;SDS011;18543;50.848;4.596;2023-04-21T02:19:18;4.70;;;3.40;;
32026;SDS011;18543;50.848;4.596;2023-04-21T02:21:46;3.67;;;2.92;;
32026;SDS011;18543;50.848;4.596;2023-04-21T02:24:13;4.90;;;3.70;;
32026;SDS011;18543;50.848;4.596;2023-04-21T02:26:41;4.32;;;3.17;;
32026;SDS011;18543;50.848;4.596;2023-04-21T02:29:08;3.13;;;2.83;;
32026;SDS011;18543;50.848;4.596;2023-04-21T02:31:35;5.90;;;3.00;;
32026;SDS011;18543;50.848;4.596;2023-04-21T02:34:22;3.75;;;3.33;;
32026;SDS011;18543;50.848;4.596;2023-04-21T02:36:50;3.55;;;3.03;;
32026;SDS011;18543;50.848;4.596;2023-04-21T02:39:17;3.90;;;3.40;;
32026;SDS011;18543;50.848;4.596;2023-04-21T02:41:45;4.38;;;3.13;;
32026;SDS011;18543;50.848;4.596;2023-04-21T02:44:12;3.30;;;3.00;;
32026;SDS011;18543;50.848;4.596;2023-04-21T02:46:39;3.53;;;3.20;;
32026;SDS011;18543;50.848;4.596;2023-04-21T02:49:07;3.72;;;3.20;;
32026;SDS011;18543;50.848;4.596;2023-04-21T02:51:34;3.90;;;3.00;;
32026;SDS011;18543;50.848;4.596;2023-04-21T02:54:04;4.50;;;3.00;;
32026;SDS011;18543;50.848;4.596;2023-04-21T02:56:31;3.50;;;2.90;;
32026;SDS011;18543;50.848;4.596;2023-04-21T02:58:59;3.15;;;2.85;;
32026;SDS011;18543;50.848;4.596;2023-04-21T03:01:27;3.55;;;3.05;;
32026;SDS011;18543;50.848;4.596;2023-04-21T03:03:54;3.73;;;3.10;;
32026;SDS011;18543;50.848;4.596;2023-04-21T03:06:21;3.15;;;2.83;;
32026;SDS011;18543;50.848;4.596;2023-04-21T03:08:49;3.75;;;3.08;;
32026;SDS011;18543;50.848;4.596;2023-04-21T03:11:17;4.00;;;3.10;;
32026;SDS011;18543;50.848;4.596;2023-04-21T03:13:44;3.33;;;3.03;;
32026;SDS011;18543;50.848;4.596;2023-04-21T03:16:11;2.95;;;2.72;;
32026;SDS011;18543;50.848;4.596;2023-04-21T03:18:39;3.83;;;3.05;;
32026;SDS011;18543;50.848;4.596;2023-04-21T03:21:06;3.50;;;2.97;;
32026;SDS011;18543;50.848;4.596;2023-04-21T03:23:33;4.40;;;3.10;;
32026;SDS011;18543;50.848;4.596;2023-04-21T03:26:05;3.87;;;2.90;;
32026;SDS011;18543;50.848;4.596;2023-04-21T03:28:32;4.32;;;3.28;;
32026;SDS011;18543;50.848;4.596;2023-04-21T03:31:00;4.47;;;3.17;;
32026;SDS011;18543;50.848;4.596;2023-04-21T03:33:27;3.20;;;2.70;;
32026;SDS011;18543;50.848;4.596;2023-04-21T03:35:54;3.13;;;2.83;;
32026;SDS011;18543;50.848;4.596;2023-04-21T03:38:21;4.18;;;3.05;;
32026;SDS011;18543;50.848;4.596;2023-04-21T03:40:49;4.43;;;2.80;;
32026;SDS011;18543;50.848;4.596;2023-04-21T03:43:16;2.80;;;2.60;;
32026;SDS011;18543;50.848;4.596;2023-04-21T03:45:43;3.42;;;3.13;;
32026;SDS011;18543;50.848;4.596;2023-04-21T03:48:11;3.27;;;2.87;;
32026;SDS011;18543;50.848;4.596;2023-04-21T03:50:38;4.20;;;2.83;;
32026;SDS011;18543;50.848;4.596;2023-04-21T03:53:05;4.22;;;3.35;;
32026;SDS011;18543;50.848;4.596;2023-04-21T03:55:32;3.85;;;3.03;;
32026;SDS011;18543;50.848;4.596;2023-04-21T03:58:00;4.00;;;2.58;;
32026;SDS011;18543;50.848;4.596;2023-04-21T04:00:28;3.70;;;2.83;;
32026;SDS011;18543;50.848;4.596;2023-04-21T04:02:55;3.67;;;2.90;;
32026;SDS011;18543;50.848;4.596;2023-04-21T04:05:22;3.33;;;2.70;;
32026;SDS011;18543;50.848;4.596;2023-04-21T04:07:50;2.87;;;2.60;;
32026;SDS011;18543;50.848;4.596;2023-04-21T04:10:17;2.93;;;2.67;;
32026;SDS011;18543;50.848;4.596;2023-04-21T04:12:44;3.03;;;2.73;;
32026;SDS011;18543;50.848;4.596;2023-04-21T04:15:11;3.30;;;2.57;;
32026;SDS011;18543;50.848;4.596;2023-04-21T04:17:39;3.00;;;2.70;;
32026;SDS011;18543;50.848;4.596;2023-04-21T04:20:06;3.37;;;2.87;;
32026;SDS011;18543;50.848;4.596;2023-04-21T04:22:34;3.50;;;3.00;;
32026;SDS011;18543;50.848;4.596;2023-04-21T04:25:01;3.13;;;2.67;;
32026;SDS011;18543;50.848;4.596;2023-04-21T04:27:29;3.63;;;2.70;;
32026;SDS011;18543;50.848;4.596;2023-04-21T04:29:56;3.07;;;2.67;;
32026;SDS011;18543;50.848;4.596;2023-04-21T04:32:24;2.97;;;2.60;;
32026;SDS011;18543;50.848;4.596;2023-04-21T04:34:54;2.65;;;2.45;;
32026;SDS011;18543;50.848;4.596;2023-04-21T04:37:21;3.37;;;2.90;;
32026;SDS011;18543;50.848;4.596;2023-04-21T04:39:53;3.83;;;2.90;;
32026;SDS011;18543;50.848;4.596;2023-04-21T04:42:20;3.50;;;2.80;;
32026;SDS011;18543;50.848;4.596;2023-04-21T04:44:48;5.88;;;3.15;;
32026;SDS011;18543;50.848;4.596;2023-04-21T04:47:19;3.90;;;2.90;;
32026;SDS011;18543;50.848;4.596;2023-04-21T04:49:48;6.90;;;3.28;;
32026;SDS011;18543;50.848;4.596;2023-04-21T04:52:16;4.05;;;2.80;;
32026;SDS011;18543;50.848;4.596;2023-04-21T04:54:43;3.80;;;2.83;;
32026;SDS011;18543;50.848;4.596;2023-04-21T04:57:10;5.10;;;2.83;;
32026;SDS011;18543;50.848;4.596;2023-04-21T04:59:37;2.95;;;2.75;;
32026;SDS011;18543;50.848;4.596;2023-04-21T05:02:07;6.07;;;3.15;;
32026;SDS011;18543;50.848;4.596;2023-04-21T05:04:35;5.07;;;2.70;;
32026;SDS011;18543;50.848;4.596;2023-04-21T05:07:03;5.65;;;2.90;;
32026;SDS011;18543;50.848;4.596;2023-04-21T05:09:33;5.38;;;2.70;;
32026;SDS011;18543;50.848;4.596;2023-04-21T05:12:00;5.47;;;3.03;;
32026;SDS011;18543;50.848;4.596;2023-04-21T05:14:27;4.57;;;2.70;;
32026;SDS011;18543;50.848;4.596;2023-04-21T05:16:54;4.77;;;2.90;;
32026;SDS011;18543;50.848;4.596;2023-04-21T05:19:22;7.95;;;3.30;;
32026;SDS011;18543;50.848;4.596;2023-04-21T05:21:51;6.38;;;3.08;;
32026;SDS011;18543;50.848;4.596;2023-04-21T05:24:19;6.53;;;3.30;;
32026;SDS011;18543;50.848;4.596;2023-04-21T05:26:49;5.88;;;3.05;;
32026;SDS011;18543;50.848;4.596;2023-04-21T05:29:16;7.03;;;3.03;;
32026;SDS011;18543;50.848;4.596;2023-04-21T05:31:43;6.33;;;2.80;;
32026;SDS011;18543;50.848;4.596;2023-04-21T05:34:11;5.18;;;3.08;;
32026;SDS011;18543;50.848;4.596;2023-04-21T05:36:41;7.33;;;3.20;;
32026;SDS011;18543;50.848;4.596;2023-04-21T05:39:08;7.00;;;3.20;;
32026;SDS011;18543;50.848;4.596;2023-04-21T05:41:36;6.63;;;3.63;;
32026;SDS011;18543;50.848;4.596;2023-04-21T05:44:03;8.67;;;3.13;;
32026;SDS011;18543;50.848;4.596;2023-04-21T05:46:30;7.00;;;3.25;;
32026;SDS011;18543;50.848;4.596;2023-04-21T05:49:00;6.72;;;3.28;;
32026;SDS011;18543;50.848;4.596;2023-04-21T05:51:27;8.50;;;3.20;;
32026;SDS011;18543;50.848;4.596;2023-04-21T05:53:54;6.50;;;3.13;;
32026;SDS011;18543;50.848;4.596;2023-04-21T05:56:22;7.73;;;3.10;;
32026;SDS011;18543;50.848;4.596;2023-04-21T05:58:49;6.13;;;3.53;;
32026;SDS011;18543;50.848;4.596;2023-04-21T06:01:16;9.53;;;3.37;;
32026;SDS011;18543;50.848;4.596;2023-04-21T06:03:43;8.00;;;3.80;;
32026;SDS011;18543;50.848;4.596;2023-04-21T06:06:14;7.47;;;3.97;;
32026;SDS011;18543;50.848;4.596;2023-04-21T06:08:41;7.05;;;4.43;;
32026;SDS011;18543;50.848;4.596;2023-04-21T06:11:09;8.40;;;4.30;;
32026;SDS011;18543;50.848;4.596;2023-04-21T06:13:36;7.07;;;4.57;;
32026;SDS011;18543;50.848;4.596;2023-04-21T06:16:06;5.93;;;4.70;;
32026;SDS011;18543;50.848;4.596;2023-04-21T06:18:33;15.67;;;5.80;;
32026;SDS011;18543;50.848;4.596;2023-04-21T06:21:00;8.15;;;5.00;;
32026;SDS011;18543;50.848;4.596;2023-04-21T06:23:28;9.27;;;5.17;;
32026;SDS011;18543;50.848;4.596;2023-04-21T06:25:59;12.32;;;5.13;;
32026;SDS011;18543;50.848;4.596;2023-04-21T06:28:26;8.20;;;4.88;;
32026;SDS011;18543;50.848;4.596;2023-04-21T06:30:53;6.87;;;4.57;;
32026;SDS011;18543;50.848;4.596;2023-04-21T06:33:21;9.03;;;4.70;;
32026;SDS011;18543;50.848;4.596;2023-04-21T06:35:48;6.77;;;4.70;;
32026;SDS011;18543;50.848;4.596;2023-04-21T06:38:15;7.50;;;4.50;;
32026;SDS011;18543;50.848;4.596;2023-04-21T06:40:43;10.93;;;4.70;;
32026;SDS011;18543;50.848;4.596;2023-04-21T06:43:10;8.10;;;4.70;;
32026;SDS011;18543;50.848;4.596;2023-04-21T06:45:37;9.73;;;4.47;;
32026;SDS011;18543;50.848;4.596;2023-04-21T06:48:07;8.15;;;4.80;;
32026;SDS011;18543;50.848;4.596;2023-04-21T06:50:34;6.15;;;4.20;;
32026;SDS011;18543;50.848;4.596;2023-04-21T06:53:01;7.53;;;4.13;;
32026;SDS011;18543;50.848;4.596;2023-04-21T06:55:29;7.27;;;4.33;;
32026;SDS011;18543;50.848;4.596;2023-04-21T06:57:56;8.20;;;4.40;;
32026;SDS011;18543;50.848;4.596;2023-04-21T07:00:23;5.17;;;4.27;;
32026;SDS011;18543;50.848;4.596;2023-04-21T07:02:50;9.18;;;4.50;;
32026;SDS011;18543;50.848;4.596;2023-04-21T07:05:18;6.43;;;4.00;;
32026;SDS011;18543;50.848;4.596;2023-04-21T07:07:45;6.20;;;4.17;;
32026;SDS011;18543;50.848;4.596;2023-04-21T07:10:13;6.07;;;4.43;;
32026;SDS011;18543;50.848;4.596;2023-04-21T07:12:44;4.90;;;4.10;;
32026;SDS011;18543;50.848;4.596;2023-04-21T07:15:12;4.88;;;4.07;;
32026;SDS011;18543;50.848;4.596;2023-04-21T07:17:39;7.00;;;4.45;;
32026;SDS011;18543;50.848;4.596;2023-04-21T07:20:06;5.13;;;3.80;;
32026;SDS011;18543;50.848;4.596;2023-04-21T07:22:34;6.68;;;4.55;;
32026;SDS011;18543;50.848;4.596;2023-04-21T07:25:02;4.95;;;4.07;;
32026;SDS011;18543;50.848;4.596;2023-04-21T07:27:33;5.90;;;3.70;;
32026;SDS011;18543;50.848;4.596;2023-04-21T07:30:04;7.82;;;4.38;;
32026;SDS011;18543;50.848;4.596;2023-04-21T07:32:31;6.43;;;3.85;;
32026;SDS011;18543;50.848;4.596;2023-04-21T07:35:00;5.97;;;4.07;;
32026;SDS011;18543;50.848;4.596;2023-04-21T07:37:28;4.88;;;3.90;;
32026;SDS011;18543;50.848;4.596;2023-04-21T07:39:55;5.03;;;4.00;;
32026;SDS011;18543;50.848;4.596;2023-04-21T07:42:22;4.87;;;4.03;;
32026;SDS011;18543;50.848;4.596;2023-04-21T07:44:51;5.57;;;3.83;;
32026;SDS011;18543;50.848;4.596;2023-04-21T07:47:21;5.05;;;4.03;;
32026;SDS011;18543;50.848;4.596;2023-04-21T07:49:48;4.60;;;3.75;;
32026;SDS011;18543;50.848;4.596;2023-04-21T07:52:15;4.90;;;3.33;;
32026;SDS011;18543;50.848;4.596;2023-04-21T07:54:43;5.57;;;3.65;;
32026;SDS011;18543;50.848;4.596;2023-04-21T07:57:10;4.30;;;3.40;;
32026;SDS011;18543;50.848;4.596;2023-04-21T07:59:37;5.10;;;3.37;;
32026;SDS011;18543;50.848;4.596;2023-04-21T08:02:05;4.57;;;3.47;;
32026;SDS011;18543;50.848;4.596;2023-04-21T08:04:32;4.00;;;3.50;;
32026;SDS011;18543;50.848;4.596;2023-04-21T08:07:00;4.85;;;3.70;;
32026;SDS011;18543;50.848;4.596;2023-04-21T08:09:28;8.48;;;3.20;;
32026;SDS011;18543;50.848;4.596;2023-04-21T08:11:55;7.07;;;3.57;;
32026;SDS011;18543;50.848;4.596;2023-04-21T08:14:23;4.50;;;3.20;;
32026;SDS011;18543;50.848;4.596;2023-04-21T08:16:52;4.15;;;3.40;;
32026;SDS011;18543;50.848;4.596;2023-04-21T08:19:22;5.47;;;3.53;;
32026;SDS011;18543;50.848;4.596;2023-04-21T08:21:49;5.10;;;3.28;;
32026;SDS011;18543;50.848;4.596;2023-04-21T08:24:17;4.10;;;3.40;;
32026;SDS011;18543;50.848;4.596;2023-04-21T08:26:45;5.82;;;3.22;;
32026;SDS011;18543;50.848;4.596;2023-04-21T08:29:12;4.00;;;3.53;;
32026;SDS011;18543;50.848;4.596;2023-04-21T08:31:39;4.87;;;3.47;;
32026;SDS011;18543;50.848;4.596;2023-04-21T08:34:07;5.63;;;3.55;;
32026;SDS011;18543;50.848;4.596;2023-04-21T08:36:34;5.57;;;3.67;;
32026;SDS011;18543;50.848;4.596;2023-04-21T08:39:01;3.60;;;3.30;;
32026;SDS011;18543;50.848;4.596;2023-04-21T08:41:29;4.68;;;3.20;;
32026;SDS011;18543;50.848;4.596;2023-04-21T08:43:56;4.03;;;3.10;;
32026;SDS011;18543;50.848;4.596;2023-04-21T08:46:23;4.10;;;3.40;;
32026;SDS011;18543;50.848;4.596;2023-04-21T08:48:51;5.85;;;3.30;;
32026;SDS011;18543;50.848;4.596;2023-04-21T08:51:21;4.00;;;3.40;;
32026;SDS011;18543;50.848;4.596;2023-04-21T08:53:49;5.22;;;3.40;;
32026;SDS011;18543;50.848;4.596;2023-04-21T08:56:17;8.02;;;2.80;;
32026;SDS011;18543;50.848;4.596;2023-04-21T08:58:47;7.10;;;3.28;;
32026;SDS011;18543;50.848;4.596;2023-04-21T09:01:14;4.37;;;3.13;;
32026;SDS011;18543;50.848;4.596;2023-04-21T09:03:41;7.03;;;2.80;;
32026;SDS011;18543;50.848;4.596;2023-04-21T09:06:09;3.50;;;2.83;;
32026;SDS011;18543;50.848;4.596;2023-04-21T09:08:41;5.25;;;3.00;;
32026;SDS011;18543;50.848;4.596;2023-04-21T09:11:12;4.13;;;2.95;;
32026;SDS011;18543;50.848;4.596;2023-04-21T09:13:40;2.92;;;2.72;;
32026;SDS011;18543;50.848;4.596;2023-04-21T09:16:19;3.58;;;2.90;;
32026;SDS011;18543;50.848;4.596;2023-04-21T09:18:48;3.28;;;2.97;;
32026;SDS011;18543;50.848;4.596;2023-04-21T09:21:16;4.72;;;2.83;;
32026;SDS011;18543;50.848;4.596;2023-04-21T09:26:11;3.20;;;2.90;;
32026;SDS011;18543;50.848;4.596;2023-04-21T09:28:46;3.10;;;2.80;;
32026;SDS011;18543;50.848;4.596;2023-04-21T09:31:14;3.47;;;2.92;;
32026;SDS011;18543;50.848;4.596;2023-04-21T09:33:48;3.35;;;2.60;;
32026;SDS011;18543;50.848;4.596;2023-04-21T09:36:24;3.28;;;2.80;;
32026;SDS011;18543;50.848;4.596;2023-04-21T09:41:40;2.95;;;2.55;;
32026;SDS011;18543;50.848;4.596;2023-04-21T09:44:09;3.15;;;2.70;;
32026;SDS011;18543;50.848;4.596;2023-04-21T09:46:37;3.23;;;2.93;;
32026;SDS011;18543;50.848;4.596;2023-04-21T09:49:04;5.13;;;2.83;;
32026;SDS011;18543;50.848;4.596;2023-04-21T09:51:32;5.13;;;2.60;;
32026;SDS011;18543;50.848;4.596;2023-04-21T09:54:06;3.13;;;2.67;;
32026;SDS011;18543;50.848;4.596;2023-04-21T09:56:53;2.58;;;2.38;;
32026;SDS011;18543;50.848;4.596;2023-04-21T09:59:28;7.07;;;2.88;;
32026;SDS011;18543;50.848;4.596;2023-04-21T10:01:56;3.10;;;2.70;;
32026;SDS011;18543;50.848;4.596;2023-04-21T10:04:24;3.15;;;2.63;;
32026;SDS011;18543;50.848;4.596;2023-04-21T10:06:52;3.55;;;2.70;;
32026;SDS011;18543;50.848;4.596;2023-04-21T10:11:47;3.00;;;2.53;;
32026;SDS011;18543;50.848;4.596;2023-04-21T10:14:17;4.00;;;2.53;;
32026;SDS011;18543;50.848;4.596;2023-04-21T10:16:54;2.90;;;2.50;;
32026;SDS011;18543;50.848;4.596;2023-04-21T10:19:25;3.33;;;2.50;;
32026;SDS011;18543;50.848;4.596;2023-04-21T10:21:56;3.38;;;2.50;;
32026;SDS011;18543;50.848;4.596;2023-04-21T10:24:27;2.95;;;2.40;;
32026;SDS011;18543;50.848;4.596;2023-04-21T10:26:55;3.08;;;2.42;;
32026;SDS011;18543;50.848;4.596;2023-04-21T10:29:28;2.83;;;2.42;;
32026;SDS011;18543;50.848;4.596;2023-04-21T10:35:09;2.97;;;2.53;;
32026;SDS011;18543;50.848;4.596;2023-04-21T10:37:36;4.90;;;2.65;;
32026;SDS011;18543;50.848;4.596;2023-04-21T10:40:04;3.63;;;2.40;;
32026;SDS011;18543;50.848;4.596;2023-04-21T10:42:34;3.60;;;2.80;;
32026;SDS011;18543;50.848;4.596;2023-04-21T10:45:06;4.90;;;2.47;;
32026;SDS011;18543;50.848;4.596;2023-04-21T10:50:22;3.95;;;2.33;;
32026;SDS011;18543;50.848;4.596;2023-04-21T10:55:25;6.43;;;2.80;;
32026;SDS011;18543;50.848;4.596;2023-04-21T10:57:52;5.40;;;2.40;;
32026;SDS011;18543;50.848;4.596;2023-04-21T11:00:20;3.80;;;2.50;;
32026;SDS011;18543;50.848;4.596;2023-04-21T11:05:29;4.68;;;2.40;;
32026;SDS011;18543;50.848;4.596;2023-04-21T11:10:53;2.40;;;2.20;;
32026;SDS011;18543;50.848;4.596;2023-04-21T11:13:24;4.13;;;2.33;;
32026;SDS011;18543;50.848;4.596;2023-04-21T11:16:02;5.43;;;2.10;;
32026;SDS011;18543;50.848;4.596;2023-04-21T11:18:32;3.40;;;2.30;;
32026;SDS011;18543;50.848;4.596;2023-04-21T11:21:06;3.58;;;2.63;;
32026;SDS011;18543;50.848;4.596;2023-04-21T11:23:33;5.18;;;2.30;;
32026;SDS011;18543;50.848;4.596;2023-04-21T11:26:01;4.45;;;2.10;;
32026;SDS011;18543;50.848;4.596;2023-04-21T11:28:28;3.63;;;2.23;;
32026;SDS011;18543;50.848;4.596;2023-04-21T11:30:55;3.23;;;2.10;;
32026;SDS011;18543;50.848;4.596;2023-04-21T11:33:23;4.67;;;2.23;;
32026;SDS011;18543;50.848;4.596;2023-04-21T11:35:51;4.15;;;2.25;;
32026;SDS011;18543;50.848;4.596;2023-04-21T11:38:24;3.13;;;2.10;;
32026;SDS011;18543;50.848;4.596;2023-04-21T11:40:51;3.07;;;2.07;;
32026;SDS011;18543;50.848;4.596;2023-04-21T11:43:20;2.67;;;2.00;;
32026;SDS011;18543;50.848;4.596;2023-04-21T11:45:48;3.83;;;2.20;;
32026;SDS011;18543;50.848;4.596;2023-04-21T11:48:16;4.47;;;2.08;;
32026;SDS011;18543;50.848;4.596;2023-04-21T11:50:48;3.95;;;2.05;;
32026;SDS011;18543;50.848;4.596;2023-04-21T11:53:15;3.88;;;1.88;;
32026;SDS011;18543;50.848;4.596;2023-04-21T11:55:44;3.83;;;2.27;;
32026;SDS011;18543;50.848;4.596;2023-04-21T11:58:11;2.65;;;1.90;;
32026;SDS011;18543;50.848;4.596;2023-04-21T12:00:44;2.97;;;1.95;;
32026;SDS011;18543;50.848;4.596;2023-04-21T12:03:12;2.53;;;2.20;;
32026;SDS011;18543;50.848;4.596;2023-04-21T12:05:39;2.30;;;2.10;;
32026;SDS011;18543;50.848;4.596;2023-04-21T12:08:12;2.45;;;1.70;;
32026;SDS011;18543;50.848;4.596;2023-04-21T12:10:43;2.42;;;2.05;;
32026;SDS011;18543;50.848;4.596;2023-04-21T12:13:10;2.65;;;2.22;;
32026;SDS011;18543;50.848;4.596;2023-04-21T12:15:38;2.88;;;1.98;;
32026;SDS011;18543;50.848;4.596;2023-04-21T12:18:10;2.93;;;1.90;;
32026;SDS011;18543;50.848;4.596;2023-04-21T12:20:38;2.08;;;1.85;;
32026;SDS011;18543;50.848;4.596;2023-04-21T12:23:14;2.15;;;1.90;;
32026;SDS011;18543;50.848;4.596;2023-04-21T12:25:41;2.00;;;1.80;;
32026;SDS011;18543;50.848;4.596;2023-04-21T12:28:10;2.10;;;1.90;;
32026;SDS011;18543;50.848;4.596;2023-04-21T12:30:38;2.67;;;1.80;;
32026;SDS011;18543;50.848;4.596;2023-04-21T12:33:07;2.20;;;2.00;;
32026;SDS011;18543;50.848;4.596;2023-04-21T12:35:35;3.05;;;2.10;;
32026;SDS011;18543;50.848;4.596;2023-04-21T12:38:02;5.27;;;2.23;;
32026;SDS011;18543;50.848;4.596;2023-04-21T12:40:31;9.68;;;2.90;;
32026;SDS011;18543;50.848;4.596;2023-04-21T12:42:58;7.15;;;2.38;;
32026;SDS011;18543;50.848;4.596;2023-04-21T12:45:25;9.03;;;2.40;;
32026;SDS011;18543;50.848;4.596;2023-04-21T12:47:53;3.40;;;1.80;;
32026;SDS011;18543;50.848;4.596;2023-04-21T12:50:21;8.85;;;2.45;;
32026;SDS011;18543;50.848;4.596;2023-04-21T12:52:48;5.30;;;2.10;;
32026;SDS011;18543;50.848;4.596;2023-04-21T12:55:16;4.70;;;2.10;;
32026;SDS011;18543;50.848;4.596;2023-04-21T12:57:44;4.73;;;2.10;;
32026;SDS011;18543;50.848;4.596;2023-04-21T13:00:11;3.50;;;2.00;;
32026;SDS011;18543;50.848;4.596;2023-04-21T13:02:40;3.95;;;2.10;;
32026;SDS011;18543;50.848;4.596;2023-04-21T13:05:07;3.42;;;2.05;;
32026;SDS011;18543;50.848;4.596;2023-04-21T13:07:36;3.38;;;2.15;;
32026;SDS011;18543;50.848;4.596;2023-04-21T13:10:04;3.90;;;2.10;;
32026;SDS011;18543;50.848;4.596;2023-04-21T13:12:32;2.75;;;1.90;;
32026;SDS011;18543;50.848;4.596;2023-04-21T13:14:59;2.83;;;2.10;;
32026;SDS011;18543;50.848;4.596;2023-04-21T13:17:26;2.40;;;1.90;;
32026;SDS011;18543;50.848;4.596;2023-04-21T13:19:54;2.10;;;1.90;;
32026;SDS011;18543;50.848;4.596;2023-04-21T13:22:21;3.10;;;2.00;;
32026;SDS011;18543;50.848;4.596;2023-04-21T13:24:48;3.53;;;1.80;;
32026;SDS011;18543;50.848;4.596;2023-04-21T13:27:15;2.50;;;1.97;;
32026;SDS011;18543;50.848;4.596;2023-04-21T13:29:43;3.67;;;1.80;;
32026;SDS011;18543;50.848;4.596;2023-04-21T13:32:10;4.55;;;1.80;;
32026;SDS011;18543;50.848;4.596;2023-04-21T13:34:38;3.03;;;1.60;;
32026;SDS011;18543;50.848;4.596;2023-04-21T13:37:05;3.23;;;1.90;;
32026;SDS011;18543;50.848;4.596;2023-04-21T13:39:35;4.07;;;1.98;;
32026;SDS011;18543;50.848;4.596;2023-04-21T13:42:03;4.27;;;2.10;;
32026;SDS011;18543;50.848;4.596;2023-04-21T13:44:30;4.00;;;1.80;;
32026;SDS011;18543;50.848;4.596;2023-04-21T13:46:58;2.27;;;2.00;;
32026;SDS011;18543;50.848;4.596;2023-04-21T13:49:25;2.85;;;1.83;;
32026;SDS011;18543;50.848;4.596;2023-04-21T13:51:52;2.08;;;1.60;;
32026;SDS011;18543;50.848;4.596;2023-04-21T13:54:20;2.37;;;1.87;;
32026;SDS011;18543;50.848;4.596;2023-04-21T13:56:47;1.77;;;1.45;;
32026;SDS011;18543;50.848;4.596;2023-04-21T13:59:16;2.50;;;1.80;;
32026;SDS011;18543;50.848;4.596;2023-04-21T14:01:46;3.20;;;1.70;;
32026;SDS011;18543;50.848;4.596;2023-04-21T14:04:16;3.17;;;1.90;;
32026;SDS011;18543;50.848;4.596;2023-04-21T14:06:47;2.97;;;1.75;;
32026;SDS011;18543;50.848;4.596;2023-04-21T14:09:14;3.33;;;1.98;;
32026;SDS011;18543;50.848;4.596;2023-04-21T14:11:42;2.67;;;2.00;;
32026;SDS011;18543;50.848;4.596;2023-04-21T14:14:09;1.80;;;1.70;;
32026;SDS011;18543;50.848;4.596;2023-04-21T14:16:36;4.30;;;2.00;;
32026;SDS011;18543;50.848;4.596;2023-04-21T14:19:07;2.80;;;1.80;;
32026;SDS011;18543;50.848;4.596;2023-04-21T14:21:35;2.33;;;1.88;;
32026;SDS011;18543;50.848;4.596;2023-04-21T14:24:03;2.90;;;1.90;;
32026;SDS011;18543;50.848;4.596;2023-04-21T14:26:30;4.28;;;1.85;;
32026;SDS011;18543;50.848;4.596;2023-04-21T14:28:57;2.20;;;1.85;;
32026;SDS011;18543;50.848;4.596;2023-04-21T14:31:26;1.80;;;1.60;;
32026;SDS011;18543;50.848;4.596;2023-04-21T14:33:54;2.17;;;1.90;;
32026;SDS011;18543;50.848;4.596;2023-04-21T14:36:21;1.70;;;1.60;;
32026;SDS011;18543;50.848;4.596;2023-04-21T14:38:48;3.10;;;1.63;;
32026;SDS011;18543;50.848;4.596;2023-04-21T14:41:16;2.58;;;1.80;;
32026;SDS011;18543;50.848;4.596;2023-04-21T14:43:45;2.90;;;1.90;;
32026;SDS011;18543;50.848;4.596;2023-04-21T14:46:15;3.17;;;2.00;;
32026;SDS011;18543;50.848;4.596;2023-04-21T14:48:42;2.22;;;1.60;;
32026;SDS011;18543;50.848;4.596;2023-04-21T14:51:09;2.10;;;1.90;;
32026;SDS011;18543;50.848;4.596;2023-04-21T14:53:37;1.97;;;1.70;;
32026;SDS011;18543;50.848;4.596;2023-04-21T14:56:05;1.70;;;1.60;;
32026;SDS011;18543;50.848;4.596;2023-04-21T14:58:33;3.38;;;1.75;;
32026;SDS011;18543;50.848;4.596;2023-04-21T15:01:00;4.80;;;1.80;;
32026;SDS011;18543;50.848;4.596;2023-04-21T15:03:28;6.22;;;2.03;;
32026;SDS011;18543;50.848;4.596;2023-04-21T15:05:56;7.95;;;1.92;;
32026;SDS011;18543;50.848;4.596;2023-04-21T15:08:23;3.07;;;1.67;;
32026;SDS011;18543;50.848;4.596;2023-04-21T15:10:50;3.63;;;1.90;;
32026;SDS011;18543;50.848;4.596;2023-04-21T15:13:18;5.03;;;1.88;;
32026;SDS011;18543;50.848;4.596;2023-04-21T15:15:45;7.23;;;1.93;;
32026;SDS011;18543;50.848;4.596;2023-04-21T15:18:12;4.47;;;1.80;;
32026;SDS011;18543;50.848;4.596;2023-04-21T15:20:40;4.10;;;1.70;;